Time;durP1;ratioP1;P1;durP2;ratioP2;P2;SDS_P1;SDS_P2;PMS_P1;PMS_P2;Temp;Humidity;BMP_temperature;BMP_pressure;BME280_temperature;BME280_humidity;BME280_pressure;Samples;Min_cycle;Max_cycle;Signal;HPM_P1;HPM_P2
2023/06/05 00:02:22;;;;;;;16.65;9.98;;;;;;;-144.87;100.00;61487.56;4998648;28;20360;-69
2023/06/05 00:04:49;;;;;;;15.15;9.90;;;;;;;-144.87;100.00;61487.56;5018507;28;20042;-70
2023/06/05 00:07:15;;;;;;;18.58;10.52;;;;;;;-144.87;100.00;61487.56;5007400;28;20037;-70
2023/06/05 00:09:41;;;;;;;18.73;10.48;;;;;;;-144.87;100.00;61487.56;5009225;28;20522;-70
2023/06/05 00:12:08;;;;;;;19.60;11.13;;;;;;;-144.87;100.00;61487.56;5011014;28;20502;-69
2023/06/05 00:14:34;;;;;;;14.73;10.18;;;;;;;-144.87;100.00;61487.56;5008381;28;20403;-71
2023/06/05 00:17:01;;;;;;;19.15;10.50;;;;;;;-144.87;100.00;61487.56;5007641;28;20042;-70
2023/06/05 00:19:29;;;;;;;18.98;11.10;;;;;;;-144.87;100.00;61487.56;5003649;28;20745;-70
2023/06/05 00:21:55;;;;;;;18.10;11.10;;;;;;;-144.87;100.00;61487.56;5002551;28;20119;-69
2023/06/05 00:24:22;;;;;;;21.60;11.82;;;;;;;-144.87;100.00;61487.56;5020310;28;20145;-70
2023/06/05 00:26:48;;;;;;;16.42;11.60;;;;;;;-144.87;100.00;61487.56;5001043;28;20416;-70
2023/06/05 00:29:14;;;;;;;18.15;10.93;;;;;;;-144.87;100.00;61487.56;5018219;28;20035;-69
2023/06/05 00:31:42;;;;;;;25.25;11.73;;;;;;;-144.87;100.00;61487.56;4987447;28;20274;-70
2023/06/05 00:34:08;;;;;;;27.25;12.27;;;;;;;-144.87;100.00;61487.56;5002297;28;20092;-69
2023/06/05 00:36:36;;;;;;;20.65;10.88;;;;;;;-144.87;100.00;61487.56;5001029;28;20038;-70
2023/06/05 00:39:03;;;;;;;17.27;11.13;;;;;;;-144.87;100.00;61487.56;5002287;28;20030;-70
2023/06/05 00:41:30;;;;;;;20.95;11.65;;;;;;;-144.87;100.00;61487.56;5005115;28;20034;-69
2023/06/05 00:43:56;;;;;;;19.25;12.25;;;;;;;-144.87;100.00;61487.56;4989303;28;20164;-70
2023/06/05 00:46:23;;;;;;;19.40;11.52;;;;;;;-144.87;100.00;61487.56;4997753;28;20048;-69
2023/06/05 00:48:50;;;;;;;16.95;11.40;;;;;;;-144.87;100.00;61487.56;4989371;28;20116;-70
2023/06/05 00:51:16;;;;;;;24.33;12.63;;;;;;;-144.87;100.00;61487.56;5004893;28;20052;-70
2023/06/05 00:53:44;;;;;;;28.80;11.88;;;;;;;-144.87;100.00;61487.56;4998370;28;20121;-69
2023/06/05 00:56:11;;;;;;;18.00;11.60;;;;;;;-144.87;100.00;61487.56;5000986;28;20044;-69
2023/06/05 00:58:37;;;;;;;18.80;11.45;;;;;;;-144.87;100.00;61487.56;4999160;28;20056;-70
2023/06/05 01:01:03;;;;;;;21.70;12.68;;;;;;;-144.87;100.00;61487.56;4973983;28;20033;-69
2023/06/05 01:03:33;;;;;;;23.80;12.43;;;;;;;-144.87;100.00;61487.56;4973493;28;20038;-69
2023/06/05 01:06:03;;;;;;;25.58;12.10;;;;;;;-144.87;100.00;61487.56;5003494;28;20033;-69
2023/06/05 01:08:38;;;;;;;21.40;11.85;;;;;;;-144.87;100.00;61487.56;4990601;28;20049;-69
2023/06/05 01:11:17;;;;;;;19.13;12.00;;;;;;;-144.87;100.00;61487.56;4976457;28;20032;-68
2023/06/05 01:13:50;;;;;;;19.83;12.55;;;;;;;-144.87;100.00;61487.56;5009447;28;20038;-69
2023/06/05 01:16:16;;;;;;;19.55;12.30;;;;;;;-144.87;100.00;61487.56;4999092;28;20026;-68
2023/06/05 01:18:45;;;;;;;21.60;13.25;;;;;;;-144.87;100.00;61487.56;4974819;28;20042;-69
2023/06/05 01:21:13;;;;;;;19.60;11.75;;;;;;;-144.87;100.00;61487.56;4987068;28;20029;-69
2023/06/05 01:23:44;;;;;;;21.10;12.20;;;;;;;-144.87;100.00;61487.56;5003421;28;20045;-69
2023/06/05 01:26:18;;;;;;;22.20;13.55;;;;;;;-144.87;100.00;61487.56;5002203;28;20058;-69
2023/06/05 01:28:47;;;;;;;24.10;12.48;;;;;;;-144.87;100.00;61487.56;4986385;28;20038;-69
2023/06/05 01:31:18;;;;;;;22.05;13.30;;;;;;;-144.87;100.00;61487.56;5002775;28;20030;-70
2023/06/05 01:33:49;;;;;;;23.17;12.65;;;;;;;-144.87;100.00;61487.56;5000384;28;20128;-70
2023/06/05 01:36:16;;;;;;;27.00;13.55;;;;;;;-144.87;100.00;61487.56;4995124;28;20030;-69
2023/06/05 01:38:44;;;;;;;23.73;13.13;;;;;;;-144.87;100.00;61487.56;4991125;28;20359;-70
2023/06/05 01:41:11;;;;;;;22.02;13.30;;;;;;;-144.87;100.00;61487.56;5011264;28;20444;-69
2023/06/05 01:43:38;;;;;;;22.48;13.57;;;;;;;-144.87;100.00;61487.56;4991990;28;20026;-71
2023/06/05 01:46:07;;;;;;;19.00;12.30;;;;;;;-144.87;100.00;61487.56;4974338;28;20516;-70
2023/06/05 01:48:34;;;;;;;19.73;13.13;;;;;;;-144.87;100.00;61487.56;4972029;28;20160;-70
2023/06/05 01:51:01;;;;;;;20.95;13.60;;;;;;;-144.87;100.00;61487.56;4987987;28;20121;-72
2023/06/05 01:53:29;;;;;;;28.35;14.38;;;;;;;-144.87;100.00;61487.56;5005438;28;20065;-69
2023/06/05 01:55:59;;;;;;;26.45;13.77;;;;;;;-144.87;100.00;61487.56;4996198;28;20142;-69
2023/06/05 01:58:26;;;;;;;23.43;13.97;;;;;;;-144.87;100.00;61487.56;4991525;28;20042;-69
2023/06/05 02:00:56;;;;;;;24.48;14.18;;;;;;;-144.87;100.00;61487.56;5037799;28;20030;-69
2023/06/05 02:03:24;;;;;;;27.10;14.15;;;;;;;-144.87;100.00;61487.56;5003334;28;20038;-69
2023/06/05 02:05:54;;;;;;;30.10;14.95;;;;;;;-144.87;100.00;61487.56;5019421;28;20036;-69
2023/06/05 02:08:22;;;;;;;22.83;13.10;;;;;;;-144.87;100.00;61487.56;4999673;28;21790;-69
2023/06/05 02:10:52;;;;;;;29.55;16.40;;;;;;;-144.87;100.00;61487.56;5004837;28;20022;-69
2023/06/05 02:13:19;;;;;;;26.48;14.77;;;;;;;-144.87;100.00;61487.56;4995794;28;20042;-70
2023/06/05 02:15:46;;;;;;;27.05;14.70;;;;;;;-144.87;100.00;61487.56;5004306;28;20079;-69
2023/06/05 02:18:13;;;;;;;27.27;14.88;;;;;;;-144.87;100.00;61487.56;4965080;28;20030;-68
2023/06/05 02:20:41;;;;;;;27.33;15.77;;;;;;;-144.87;100.00;61487.56;5005442;28;20044;-69
2023/06/05 02:23:11;;;;;;;;;;;;;;;-144.87;100.00;61487.56;4997452;28;20029;-68
2023/06/05 02:25:37;;;;;;;24.17;14.10;;;;;;;-144.87;100.00;61487.56;4998526;28;19921;-69
2023/06/05 02:28:03;;;;;;;26.67;14.48;;;;;;;-144.87;100.00;61487.56;4992600;28;20121;-69
2023/06/05 02:30:30;;;;;;;25.67;14.57;;;;;;;-144.87;100.00;61487.56;5003748;28;20096;-69
2023/06/05 02:33:00;;;;;;;28.00;14.68;;;;;;;-144.87;100.00;61487.56;4996048;28;20474;-69
2023/06/05 02:35:26;;;;;;;21.25;14.77;;;;;;;-144.87;100.00;61487.56;5008385;28;20121;-70
2023/06/05 02:37:53;;;;;;;27.45;14.75;;;;;;;-144.87;100.00;61487.56;5005415;28;20030;-70
2023/06/05 02:40:20;;;;;;;31.30;14.93;;;;;;;-144.87;100.00;61487.56;5001649;28;20574;-70
2023/06/05 02:42:47;;;;;;;26.88;14.85;;;;;;;-144.87;100.00;61487.56;4981720;28;20541;-70
2023/06/05 02:45:13;;;;;;;25.20;14.65;;;;;;;-144.87;100.00;61487.56;5001611;28;20113;-70
2023/06/05 02:47:40;;;;;;;26.92;15.38;;;;;;;-144.87;100.00;61487.56;5000606;28;20040;-70
2023/06/05 02:50:08;;;;;;;27.95;15.23;;;;;;;-144.87;100.00;61487.56;4984194;28;20181;-69
2023/06/05 02:52:39;;;;;;;26.65;15.25;;;;;;;-144.87;100.00;61487.56;5015532;28;20140;-70
2023/06/05 02:55:13;;;;;;;27.40;14.90;;;;;;;-144.87;100.00;61487.56;5000322;28;20030;-69
2023/06/05 02:57:44;;;;;;;27.60;15.88;;;;;;;-144.87;100.00;61487.56;5001088;28;20475;-68
2023/06/05 03:00:16;;;;;;;31.55;16.45;;;;;;;-144.87;100.00;61487.56;4988101;28;20500;-68
2023/06/05 03:02:51;;;;;;;31.15;16.38;;;;;;;-144.87;100.00;61487.56;5030023;28;20042;-69
2023/06/05 03:05:24;;;;;;;30.80;16.50;;;;;;;-144.87;100.00;61487.56;4999821;28;20045;-69
2023/06/05 03:07:54;;;;;;;26.25;15.88;;;;;;;-144.87;100.00;61487.56;5000983;28;20104;-69
2023/06/05 03:10:21;;;;;;;30.73;16.53;;;;;;;-144.87;100.00;61487.56;4999768;28;20114;-69
2023/06/05 03:12:48;;;;;;;37.03;17.75;;;;;;;-144.87;100.00;61487.56;4985980;28;20342;-69
2023/06/05 03:15:16;;;;;;;30.77;15.77;;;;;;;-144.87;100.00;61487.56;5002338;28;20155;-68
2023/06/05 03:17:43;;;;;;;37.65;16.83;;;;;;;-144.87;100.00;61487.56;4999632;28;20038;-69
2023/06/05 03:20:09;;;;;;;28.27;16.42;;;;;;;-144.87;100.00;61487.56;5046187;28;20038;-70
2023/06/05 03:22:36;;;;;;;38.08;16.60;;;;;;;-144.87;100.00;61487.56;5021784;28;20038;-69
2023/06/05 03:25:03;;;;;;;35.80;15.93;;;;;;;-144.87;100.00;61487.56;5024187;28;20064;-69
2023/06/05 03:27:30;;;;;;;34.13;16.60;;;;;;;-144.87;100.00;61487.56;4987717;28;20023;-72
2023/06/05 03:29:58;;;;;;;35.08;17.55;;;;;;;-144.87;100.00;61487.56;4993453;28;20712;-69
2023/06/05 03:32:25;;;;;;;34.55;17.30;;;;;;;-144.87;100.00;61487.56;5007567;28;20095;-70
2023/06/05 03:34:51;;;;;;;36.60;16.80;;;;;;;-144.87;100.00;61487.56;5004192;28;20044;-70
2023/06/05 03:37:19;;;;;;;32.33;17.30;;;;;;;-144.87;100.00;61487.56;5009243;28;20345;-69
2023/06/05 03:39:47;;;;;;;32.95;17.08;;;;;;;-144.87;100.00;61487.56;4998368;28;20034;-70
2023/06/05 03:42:13;;;;;;;29.15;16.63;;;;;;;-144.87;100.00;61487.56;5035030;28;20451;-69
2023/06/05 03:44:40;;;;;;;33.42;18.45;;;;;;;-144.87;100.00;61487.56;4996612;28;20129;-71
2023/06/05 03:47:07;;;;;;;30.27;16.83;;;;;;;-144.87;100.00;61487.56;4993556;28;20046;-72
2023/06/05 03:49:35;;;;;;;27.58;16.40;;;;;;;-144.87;100.00;61487.56;5007104;28;20530;-68
2023/06/05 03:52:02;;;;;;;31.88;16.88;;;;;;;-144.87;100.00;61487.56;5006558;28;20077;-68
2023/06/05 03:54:28;;;;;;;31.55;16.42;;;;;;;-144.87;100.00;61487.56;5009920;28;20137;-69
2023/06/05 03:56:57;;;;;;;38.75;18.00;;;;;;;-144.87;100.00;61487.56;4999804;28;20085;-69
2023/06/05 03:59:25;;;;;;;32.97;17.88;;;;;;;-144.87;100.00;61487.56;4989876;28;20034;-69
2023/06/05 04:01:57;;;;;;;33.13;17.85;;;;;;;-144.87;100.00;61487.56;4989625;28;20109;-69
2023/06/05 04:04:24;;;;;;;29.35;16.40;;;;;;;-144.87;100.00;61487.56;4990281;28;20091;-69
2023/06/05 04:06:54;;;;;;;32.22;16.05;;;;;;;-144.87;100.00;61487.56;4985961;28;20030;-69
2023/06/05 04:09:21;;;;;;;28.75;15.90;;;;;;;-144.87;100.00;61487.56;4987072;28;20045;-70
2023/06/05 04:11:48;;;;;;;29.05;16.55;;;;;;;-144.87;100.00;61487.56;5001325;28;20037;-69
2023/06/05 04:14:15;;;;;;;26.35;15.05;;;;;;;-144.87;100.00;61487.56;5007555;28;20030;-69
2023/06/05 04:16:42;;;;;;;29.35;15.40;;;;;;;-144.87;100.00;61487.56;5007596;28;20041;-69
2023/06/05 04:19:12;;;;;;;29.50;15.18;;;;;;;-144.87;100.00;61487.56;4987342;28;20049;-70
2023/06/05 04:21:42;;;;;;;;;;;;;;;-144.87;100.00;61487.56;5004268;28;20112;-70
2023/06/05 04:24:10;;;;;;;20.70;14.57;;;;;;;-144.87;100.00;61487.56;5007955;28;19918;-70
2023/06/05 04:26:38;;;;;;;25.33;14.88;;;;;;;-144.87;100.00;61487.56;5004137;28;20391;-69
2023/06/05 04:29:15;;;;;;;29.80;15.35;;;;;;;-144.87;100.00;61487.56;4984835;28;20029;-70
2023/06/05 04:31:43;;;;;;;24.33;13.20;;;;;;;-144.87;100.00;61487.56;4998143;28;20125;-70
2023/06/05 04:34:10;;;;;;;20.10;12.77;;;;;;;-144.87;100.00;61487.56;5006232;28;20026;-70
2023/06/05 04:36:37;;;;;;;21.70;12.48;;;;;;;-144.87;100.00;61487.56;4987372;28;20042;-70
2023/06/05 04:39:04;;;;;;;20.95;14.60;;;;;;;-144.87;100.00;61487.56;4997830;28;20065;-71
2023/06/05 04:41:35;;;;;;;20.70;11.75;;;;;;;-144.87;100.00;61487.56;4988598;28;20049;-70
2023/06/05 04:44:03;;;;;;;26.95;12.00;;;;;;;-144.87;100.00;61487.56;4994209;28;20053;-70
2023/06/05 04:46:31;;;;;;;17.30;11.02;;;;;;;-144.87;100.00;61487.56;4998823;28;20049;-70
2023/06/05 04:48:58;;;;;;;20.63;12.00;;;;;;;-144.87;100.00;61487.56;5010917;28;20038;-69
2023/06/05 04:51:25;;;;;;;20.67;11.38;;;;;;;-144.87;100.00;61487.56;5005141;28;20112;-69
2023/06/05 04:53:53;;;;;;;34.95;12.80;;;;;;;-144.87;100.00;61487.56;5004402;28;20030;-69
2023/06/05 04:56:22;;;;;;;22.20;10.67;;;;;;;-144.87;100.00;61487.56;5027082;28;20049;-69
2023/06/05 04:58:51;;;;;;;19.65;10.20;;;;;;;-144.87;100.00;61487.56;5020365;28;20054;-69
2023/06/05 05:01:19;;;;;;;16.77;10.23;;;;;;;-144.87;100.00;61487.56;4998123;28;20595;-68
2023/06/05 05:03:47;;;;;;;18.52;10.25;;;;;;;-144.87;100.00;61487.56;5016133;28;20590;-69
2023/06/05 05:06:19;;;;;;;17.10;10.43;;;;;;;-144.87;100.00;61487.56;4988239;28;20044;-68
2023/06/05 05:08:48;;;;;;;17.70;9.52;;;;;;;-144.87;100.00;61487.56;5033079;28;20084;-68
2023/06/05 05:11:15;;;;;;;18.75;10.25;;;;;;;-144.87;100.00;61487.56;5004569;28;20092;-68
2023/06/05 05:13:42;;;;;;;17.50;8.95;;;;;;;-144.87;100.00;61487.56;4986090;28;20038;-69
2023/06/05 05:16:09;;;;;;;14.18;8.70;;;;;;;-144.87;100.00;61487.56;5004622;28;20061;-68
2023/06/05 05:18:37;;;;;;;17.33;9.23;;;;;;;-144.87;100.00;61487.56;5001244;28;20209;-68
2023/06/05 05:21:06;;;;;;;19.17;8.63;;;;;;;-144.87;100.00;61487.56;5005932;28;20391;-68
2023/06/05 05:23:33;;;;;;;13.95;8.45;;;;;;;-144.87;100.00;61487.56;5008009;28;20041;-68
2023/06/05 05:26:03;;;;;;;15.55;9.05;;;;;;;-144.87;100.00;61487.56;5021415;28;20549;-69
2023/06/05 05:28:30;;;;;;;17.75;9.40;;;;;;;-144.87;100.00;61487.56;4995280;28;20037;-69
2023/06/05 05:31:00;;;;;;;17.65;10.60;;;;;;;-144.87;100.00;61487.56;4991517;28;20026;-69
2023/06/05 05:33:26;;;;;;;17.77;9.52;;;;;;;-144.87;100.00;61487.56;4995274;28;20089;-68
2023/06/05 05:35:55;;;;;;;18.23;10.25;;;;;;;-144.87;100.00;61487.56;5002929;28;20121;-69
2023/06/05 05:38:21;;;;;;;19.70;11.02;;;;;;;-144.87;100.00;61487.56;4987834;28;20041;-69
2023/06/05 05:40:47;;;;;;;18.00;10.93;;;;;;;-144.87;100.00;61487.56;4980917;28;20030;-69
2023/06/05 05:43:15;;;;;;;16.40;11.32;;;;;;;-144.87;100.00;61487.56;5032225;28;20038;-69
2023/06/05 05:45:43;;;;;;;18.92;10.35;;;;;;;-144.87;100.00;61487.56;4986268;28;20470;-70
2023/06/05 05:48:09;;;;;;;17.10;10.73;;;;;;;-144.87;100.00;61487.56;5000161;28;20403;-70
2023/06/05 05:50:36;;;;;;;16.83;11.30;;;;;;;-144.87;100.00;61487.56;5007199;28;20037;-69
2023/06/05 05:53:03;;;;;;;14.35;9.82;;;;;;;-144.87;100.00;61487.56;5000719;28;20137;-70
2023/06/05 05:55:29;;;;;;;19.48;10.50;;;;;;;-144.87;100.00;61487.56;4980932;28;20038;-69
2023/06/05 05:57:56;;;;;;;15.70;10.70;;;;;;;-144.87;100.00;61487.56;5009656;28;20039;-70
2023/06/05 06:00:22;;;;;;;18.27;11.30;;;;;;;-144.87;100.00;61487.56;5002028;28;20666;-69
2023/06/05 06:02:48;;;;;;;16.02;11.02;;;;;;;-144.87;100.00;61487.56;4999602;28;20034;-69
2023/06/05 06:05:15;;;;;;;13.50;10.02;;;;;;;-144.87;100.00;61487.56;5017763;28;20128;-70
2023/06/05 06:07:42;;;;;;;18.42;11.32;;;;;;;-144.87;100.00;61487.56;4995920;28;20121;-69
2023/06/05 06:10:09;;;;;;;17.10;10.75;;;;;;;-144.87;100.00;61487.56;4995095;28;20089;-70
2023/06/05 06:12:36;;;;;;;19.52;10.00;;;;;;;-144.87;100.00;61487.56;4992157;28;20056;-69
2023/06/05 06:15:03;;;;;;;17.80;10.40;;;;;;;-144.87;100.00;61487.56;5000618;28;20486;-70
2023/06/05 06:17:30;;;;;;;16.17;11.07;;;;;;;-144.87;100.00;61487.56;5019775;28;20064;-70
2023/06/05 06:19:57;;;;;;;14.82;10.43;;;;;;;-144.87;100.00;61487.56;5001904;28;20038;-69
2023/06/05 06:22:23;;;;;;;16.50;9.65;;;;;;;-144.87;100.00;61487.56;5005519;28;20049;-69
2023/06/05 06:24:50;;;;;;;16.17;9.82;;;;;;;-144.87;100.00;61487.56;5013017;28;20057;-69
2023/06/05 06:27:17;;;;;;;22.17;10.63;;;;;;;-144.87;100.00;61487.56;4999427;28;20698;-69
2023/06/05 06:29:54;;;;;;;14.75;8.73;;;;;;;-144.87;100.00;61487.56;4997261;28;20148;-69
2023/06/05 06:32:21;;;;;;;14.95;9.10;;;;;;;-144.87;100.00;61487.56;5002951;28;20022;-69
2023/06/05 06:34:47;;;;;;;16.45;9.73;;;;;;;-144.87;100.00;61487.56;5008756;28;20061;-70
2023/06/05 06:37:20;;;;;;;18.58;9.85;;;;;;;-144.87;100.00;61487.56;5001328;28;20042;-69
2023/06/05 06:39:49;;;;;;;14.60;10.20;;;;;;;-144.87;100.00;61487.56;5009164;28;20042;-70
2023/06/05 06:42:15;;;;;;;15.13;9.75;;;;;;;-144.87;100.00;61487.56;4952701;28;20069;-72
2023/06/05 06:44:55;;;;;;;13.75;9.40;;;;;;;-144.87;100.00;61487.56;5011827;28;20574;-70
2023/06/05 06:47:22;;;;;;;14.85;10.50;;;;;;;-144.87;100.00;61487.56;5007017;28;20042;-69
2023/06/05 06:49:49;;;;;;;14.93;10.35;;;;;;;-144.87;100.00;61487.56;5003750;28;20042;-68
2023/06/05 06:52:16;;;;;;;22.33;10.65;;;;;;;-144.87;100.00;61487.56;4998581;28;20041;-70
2023/06/05 06:54:42;;;;;;;16.08;10.00;;;;;;;-144.87;100.00;61487.56;5008876;28;20461;-68
2023/06/05 06:57:09;;;;;;;16.48;9.57;;;;;;;-144.87;100.00;61487.56;5001443;28;20078;-68
2023/06/05 06:59:35;;;;;;;13.18;9.32;;;;;;;-144.87;100.00;61487.56;4997422;28;20124;-68
2023/06/05 07:02:19;;;;;;;12.93;9.55;;;;;;;-144.87;100.00;61487.56;5001440;28;20869;-68
2023/06/05 07:04:47;;;;;;;11.98;8.80;;;;;;;-144.87;100.00;61487.56;5004121;28;20038;-69
2023/06/05 07:07:14;;;;;;;16.45;9.00;;;;;;;-144.87;100.00;61487.56;5026621;28;20018;-69
2023/06/05 07:09:42;;;;;;;12.38;8.63;;;;;;;-144.87;100.00;61487.56;5001091;28;20100;-69
2023/06/05 07:12:09;;;;;;;13.30;9.25;;;;;;;-144.87;100.00;61487.56;4987073;28;20029;-70
2023/06/05 07:14:36;;;;;;;13.30;8.88;;;;;;;-144.87;100.00;61487.56;5010313;28;20030;-69
2023/06/05 07:17:03;;;;;;;17.55;8.55;;;;;;;-144.87;100.00;61487.56;5013134;28;20061;-70
2023/06/05 07:19:30;;;;;;;10.48;7.72;;;;;;;-144.87;100.00;61487.56;4995953;28;20034;-69
2023/06/05 07:22:04;;;;;;;11.30;8.00;;;;;;;-144.87;100.00;61487.56;5001050;28;20046;-70
2023/06/05 07:24:31;;;;;;;13.38;8.02;;;;;;;-144.87;100.00;61487.56;4992320;28;20030;-70
2023/06/05 07:27:01;;;;;;;12.70;8.98;;;;;;;-144.87;100.00;61487.56;5001823;28;20164;-70
2023/06/05 07:29:28;;;;;;;;;;;;;;;-144.87;100.00;61487.56;5005633;28;20030;-69
2023/06/05 07:31:58;;;;;;;15.90;8.40;;;;;;;-144.87;100.00;61487.56;5003481;28;21807;-68
2023/06/05 07:34:26;;;;;;;10.93;7.78;;;;;;;-144.87;100.00;61487.56;5004737;28;20115;-69
2023/06/05 07:36:53;;;;;;;16.38;7.72;;;;;;;-144.87;100.00;61487.56;4998930;28;20086;-70
2023/06/05 07:39:23;;;;;;;12.05;8.05;;;;;;;-144.87;100.00;61487.56;5003076;28;20084;-70
2023/06/05 07:41:49;;;;;;;15.23;8.07;;;;;;;-144.87;100.00;61487.56;4999708;28;20057;-70
2023/06/05 07:44:17;;;;;;;9.85;7.38;;;;;;;-144.87;100.00;61487.56;5002188;28;20027;-70
2023/06/05 07:46:44;;;;;;;21.60;8.05;;;;;;;-144.87;100.00;61487.56;5003102;28;20041;-68
2023/06/05 07:49:11;;;;;;;10.90;7.00;;;;;;;-144.87;100.00;61487.56;4990708;28;20038;-69
2023/06/05 07:51:38;;;;;;;12.27;7.05;;;;;;;-144.87;100.00;61487.56;5005535;28;20041;-70
2023/06/05 07:54:09;;;;;;;11.55;6.10;;;;;;;-144.87;100.00;61487.56;4997747;28;20026;-68
2023/06/05 07:56:36;;;;;;;7.45;5.63;;;;;;;-144.87;100.00;61487.56;4994110;28;20038;-69
2023/06/05 07:59:04;;;;;;;6.80;5.63;;;;;;;-144.87;100.00;61487.56;5009890;28;20046;-69
2023/06/05 08:01:31;;;;;;;9.57;5.68;;;;;;;-144.87;100.00;61487.56;4992640;28;20113;-69
2023/06/05 08:03:58;;;;;;;8.82;5.82;;;;;;;-144.87;100.00;61487.56;5002387;28;20560;-70
2023/06/05 08:06:25;;;;;;;15.77;5.40;;;;;;;-144.87;100.00;61487.56;5004240;28;20049;-69
2023/06/05 08:08:52;;;;;;;9.40;5.82;;;;;;;-144.87;100.00;61487.56;5006372;28;20132;-70
2023/06/05 08:11:19;;;;;;;9.93;5.95;;;;;;;-144.87;100.00;61487.56;4999106;28;20034;-69
2023/06/05 08:13:45;;;;;;;8.30;5.75;;;;;;;-144.87;100.00;61487.56;5009496;28;20053;-70
2023/06/05 08:16:11;;;;;;;11.18;5.53;;;;;;;-144.87;100.00;61487.56;4984142;28;20038;-69
2023/06/05 08:18:38;;;;;;;9.68;6.15;;;;;;;-144.87;100.00;61487.56;5009078;28;20370;-70
2023/06/05 08:21:04;;;;;;;8.23;5.93;;;;;;;-144.87;100.00;61487.56;4995012;28;20542;-70
2023/06/05 08:23:30;;;;;;;8.15;5.47;;;;;;;-144.87;100.00;61487.56;4996798;28;20047;-70
2023/06/05 08:25:57;;;;;;;10.23;5.20;;;;;;;-144.87;100.00;61487.56;5009329;28;20042;-69
2023/06/05 08:28:23;;;;;;;12.23;5.70;;;;;;;-144.87;100.00;61487.56;4992085;28;20447;-70
2023/06/05 08:30:51;;;;;;;9.63;6.30;;;;;;;-144.87;100.00;61487.56;5031296;28;20038;-71
2023/06/05 08:33:19;;;;;;;9.13;5.55;;;;;;;-144.87;100.00;61487.56;5006262;28;20156;-70
2023/06/05 08:35:46;;;;;;;9.60;5.95;;;;;;;-144.87;100.00;61487.56;4991510;28;20049;-69
2023/06/05 08:38:12;;;;;;;9.52;5.60;;;;;;;-144.87;100.00;61487.56;5010187;28;20034;-69
2023/06/05 08:40:39;;;;;;;8.68;5.95;;;;;;;-144.87;100.00;61487.56;4998236;28;20820;-69
2023/06/05 08:43:06;;;;;;;10.20;6.70;;;;;;;-144.87;100.00;61487.56;4998172;28;20030;-69
2023/06/05 08:45:32;;;;;;;10.05;6.22;;;;;;;-144.87;100.00;61487.56;4994446;28;20466;-70
2023/06/05 08:48:02;;;;;;;8.93;5.95;;;;;;;-144.87;100.00;61487.56;5001466;28;20030;-70
2023/06/05 08:50:30;;;;;;;9.77;6.55;;;;;;;-144.87;100.00;61487.56;5036927;28;20089;-69
2023/06/05 08:53:00;;;;;;;20.90;6.78;;;;;;;-144.87;100.00;61487.56;4988462;28;20070;-70
2023/06/05 08:55:27;;;;;;;11.65;6.50;;;;;;;-144.87;100.00;61487.56;5022356;28;20033;-69
2023/06/05 08:57:54;;;;;;;9.68;6.60;;;;;;;-144.87;100.00;61487.56;4995186;28;20046;-69
2023/06/05 09:00:22;;;;;;;19.20;6.82;;;;;;;-144.87;100.00;61487.56;5003632;28;20407;-70
2023/06/05 09:02:48;;;;;;;13.27;6.55;;;;;;;-144.87;100.00;61487.56;4991248;28;20045;-69
2023/06/05 09:05:16;;;;;;;14.23;6.82;;;;;;;-144.87;100.00;61487.56;5005483;28;20033;-69
2023/06/05 09:07:43;;;;;;;14.73;6.90;;;;;;;-144.87;100.00;61487.56;5005816;28;20053;-69
2023/06/05 09:10:26;;;;;;;10.88;6.80;;;;;;;-144.87;100.00;61487.56;5004774;28;20036;-70
2023/06/05 09:13:02;;;;;;;9.10;6.82;;;;;;;-144.87;100.00;61487.56;5016290;28;20025;-68
2023/06/05 09:15:31;;;;;;;22.27;7.22;;;;;;;-144.87;100.00;61487.56;5007041;28;20234;-69
2023/06/05 09:18:05;;;;;;;27.75;7.95;;;;;;;-144.87;100.00;61487.56;5005177;28;20403;-69
2023/06/05 09:20:34;;;;;;;87.88;13.32;;;;;;;-144.87;100.00;61487.56;5008780;28;20255;-70
2023/06/05 09:23:06;;;;;;;14.82;7.38;;;;;;;-144.87;100.00;61487.56;4992514;28;20525;-71
2023/06/05 09:25:48;;;;;;;9.77;6.30;;;;;;;-144.87;100.00;61487.56;5004639;28;20033;-69
2023/06/05 09:28:15;;;;;;;13.57;7.20;;;;;;;-144.87;100.00;61487.56;5006280;28;20041;-69
2023/06/05 09:31:02;;;;;;;30.98;7.60;;;;;;;-144.87;100.00;61487.56;4992094;28;20050;-68
2023/06/05 09:33:30;;;;;;;10.98;6.45;;;;;;;-144.87;100.00;61487.56;5000611;28;20034;-69
2023/06/05 09:36:11;;;;;;;10.70;5.90;;;;;;;-144.87;100.00;61487.56;4990258;28;20454;-69
2023/06/05 09:38:39;;;;;;;8.77;5.53;;;;;;;-144.87;100.00;61487.56;5009457;28;20030;-69
2023/06/05 09:41:10;;;;;;;23.63;7.20;;;;;;;-144.87;100.00;61487.56;4991332;28;20454;-69
2023/06/05 09:43:37;;;;;;;9.00;6.40;;;;;;;-144.87;100.00;61487.56;5002483;28;20139;-70
2023/06/05 09:46:10;;;;;;;7.20;5.45;;;;;;;-144.87;100.00;61487.56;4996238;28;20042;-68
2023/06/05 09:48:37;;;;;;;12.30;5.82;;;;;;;-144.87;100.00;61487.56;4985621;28;20026;-69
2023/06/05 09:51:17;;;;;;;10.95;5.85;;;;;;;-144.87;100.00;61487.56;5005470;28;20052;-69
2023/06/05 09:53:47;;;;;;;17.30;6.25;;;;;;;-144.87;100.00;61487.56;4991575;28;20198;-68
2023/06/05 09:56:15;;;;;;;9.35;5.25;;;;;;;-144.87;100.00;61487.56;5001279;28;20794;-69
2023/06/05 09:58:46;;;;;;;12.52;6.00;;;;;;;-144.87;100.00;61487.56;5021748;28;20128;-70
2023/06/05 10:01:22;;;;;;;7.28;5.85;;;;;;;-144.87;100.00;61487.56;4993996;28;20038;-70
2023/06/05 10:03:57;;;;;;;6.55;5.15;;;;;;;-144.87;100.00;61487.56;5017903;28;20045;-69
2023/06/05 10:06:28;;;;;;;6.20;4.82;;;;;;;-144.87;100.00;61487.56;5002676;28;20042;-69
2023/06/05 10:08:57;;;;;;;;;;;;;;;-144.87;100.00;61487.56;4996682;28;20036;-68
2023/06/05 10:11:27;;;;;;;9.27;5.40;;;;;;;-144.87;100.00;61487.56;4994325;28;19924;-70
2023/06/05 10:13:54;;;;;;;8.18;5.07;;;;;;;-144.87;100.00;61487.56;5002155;28;20041;-71
2023/06/05 10:16:21;;;;;;;7.75;5.22;;;;;;;-144.87;100.00;61487.56;4999785;28;20045;-69
2023/06/05 10:18:49;;;;;;;6.13;4.82;;;;;;;-144.87;100.00;61487.56;5007782;28;20150;-69
2023/06/05 10:21:18;;;;;;;7.38;5.57;;;;;;;-144.87;100.00;61487.56;4996614;28;20547;-69
2023/06/05 10:23:50;;;;;;;8.13;4.70;;;;;;;-144.87;100.00;61487.56;4991635;28;20037;-69
2023/06/05 10:26:33;;;;;;;9.55;5.05;;;;;;;-144.87;100.00;61487.56;5005089;28;20057;-70
2023/06/05 10:29:27;;;;;;;9.35;5.35;;;;;;;-144.87;100.00;61487.56;4992113;28;20022;-71
2023/06/05 10:32:07;;;;;;;6.82;4.28;;;;;;;-144.87;100.00;61487.56;5012659;28;20117;-69
2023/06/05 10:34:47;;;;;;;7.00;4.88;;;;;;;-144.87;100.00;61487.56;5004092;28;20053;-69
2023/06/05 10:37:29;;;;;;;8.98;4.75;;;;;;;-144.87;100.00;61487.56;5004080;28;20121;-68
2023/06/05 10:39:56;;;;;;;14.65;5.10;;;;;;;-144.87;100.00;61487.56;4997074;28;20121;-70
2023/06/05 10:42:30;;;;;;;6.70;4.60;;;;;;;-144.87;100.00;61487.56;4995120;28;20038;-70
2023/06/05 10:44:56;;;;;;;14.07;5.25;;;;;;;-144.87;100.00;61487.56;5006724;28;20133;-69
2023/06/05 10:47:32;;;;;;;11.13;4.32;;;;;;;-144.87;100.00;61487.56;5000878;28;20038;-69
2023/06/05 10:50:19;;;;;;;7.03;4.22;;;;;;;-144.87;100.00;61487.56;4990466;28;20045;-69
2023/06/05 10:52:50;;;;;;;10.02;4.40;;;;;;;-144.87;100.00;61487.56;4991939;28;20038;-69
2023/06/05 10:55:17;;;;;;;5.63;4.60;;;;;;;-144.87;100.00;61487.56;4994561;28;20082;-70
2023/06/05 10:58:02;;;;;;;6.07;4.40;;;;;;;-144.87;100.00;61487.56;5001062;28;20173;-69
2023/06/05 11:00:32;;;;;;;9.20;4.97;;;;;;;-144.87;100.00;61487.56;4997738;28;20177;-70
2023/06/05 11:02:59;;;;;;;8.68;4.70;;;;;;;-144.87;100.00;61487.56;4996074;28;20034;-70
2023/06/05 11:05:27;;;;;;;9.45;4.40;;;;;;;-144.87;100.00;61487.56;4993809;28;20043;-71
2023/06/05 11:08:18;;;;;;;9.35;5.00;;;;;;;-144.87;100.00;61487.56;4995108;28;20524;-68